Weston, MA

7:17 AM EST on December 29, 2014 (GMT -0500)
Town Hall | Change Station
CLOSE
Current Station
Personal Weather Station
Location: Weston, MA
Elevation: 236 ft
Nearby Weather Stations

Elev 236 ft 42.37 °N, 71.30 °W | Updated 21 days ago

Clear
Clear
31 °F
Feels Like 31 °F
N
5
Wind Variable Wind from West
Gusts 8 mph

Today
High -- | Low -- °F
--% Chance of Precip.
Yesterday
High -- | Low -- °F
Precip. -- in
7:14 AM 4:20 PM
First Quarter, 58% visible
Pressure 30.14 in
Visibility 10.0 miles
Clouds Clear
Dew Point 21 °F
Humidity 70%
Rainfall -999.00 in
Snow Depth Not available.
UV 0 out of 12
Pollen .10 out of 12
Air Quality Not available.
Flu Activity Not available.
METAR KBED 291156Z 26003KT 10SM CLR M02/M06 A3009 RMK AO2 SLP206 T10171061 10022 21022 53014

More Conditions Fewer Conditions

Pressure 30.14 in
Visibility 10.0 miles
Clouds Clear
Dew Point 21 °F
Humidity 70%
Rainfall -999.00 in
Snow Depth Not available.
UV 0 out of 12
Pollen .10 out of 12
Air Quality Not available.
Flu Activity Not available.
METAR KBED 291156Z 26003KT 10SM CLR M02/M06 A3009 RMK AO2 SLP206 T10171061 10022 21022 53014

More Conditions Fewer Conditions

10-Day Weather Forecast

Almanac

Astronomy

Dec. 29, 2014 Rise Set
Actual Time
Civil Twilight
Nautical Twilight
Astronomical Twilight
Moon
Length of Visible Light
Length of Day
Tomorrow will be .
, % of the Moon is Illuminated

Today's Extremes

State Highs State Lows

Community

WunderPhotos

Upload Photos

1,781,571 photos uploaded!

WunderBlogs® & News

Nearby

Air Quality

  Air Quality AQ Index Pollutant
Not available.

Snow Depth

Station Depth Elevation

Earthquake Activity

City Distance Mag. Time & Date
Minimum magnitude displayed is 2.5.

Coastal Water Temperatures

Place Temperature

Nearby Weather Stations